sensor_id;sensor_type;location;lat;lon;timestamp;P1;durP1;ratioP1;P2;durP2;ratioP2
11443;SDS011;5778;47.856;12.154;2022-10-29T00:01:38;4.23;;;3.60;;
11443;SDS011;5778;47.856;12.154;2022-10-29T00:04:05;4.77;;;4.03;;
11443;SDS011;5778;47.856;12.154;2022-10-29T00:06:32;7.10;;;4.20;;
11443;SDS011;5778;47.856;12.154;2022-10-29T00:08:59;6.07;;;4.10;;
11443;SDS011;5778;47.856;12.154;2022-10-29T00:11:27;4.70;;;3.80;;
11443;SDS011;5778;47.856;12.154;2022-10-29T00:13:55;7.03;;;4.30;;
11443;SDS011;5778;47.856;12.154;2022-10-29T00:16:25;5.47;;;3.93;;
11443;SDS011;5778;47.856;12.154;2022-10-29T00:18:54;4.57;;;3.30;;
11443;SDS011;5778;47.856;12.154;2022-10-29T00:21:23;4.93;;;3.63;;
11443;SDS011;5778;47.856;12.154;2022-10-29T00:23:51;5.43;;;3.43;;
11443;SDS011;5778;47.856;12.154;2022-10-29T00:26:19;4.13;;;3.73;;
11443;SDS011;5778;47.856;12.154;2022-10-29T00:28:50;5.17;;;3.50;;
11443;SDS011;5778;47.856;12.154;2022-10-29T00:31:17;4.57;;;3.00;;
11443;SDS011;5778;47.856;12.154;2022-10-29T00:33:48;5.93;;;3.30;;
11443;SDS011;5778;47.856;12.154;2022-10-29T00:36:16;3.70;;;3.20;;
11443;SDS011;5778;47.856;12.154;2022-10-29T00:38:46;5.40;;;3.00;;
11443;SDS011;5778;47.856;12.154;2022-10-29T00:41:15;7.10;;;3.63;;
11443;SDS011;5778;47.856;12.154;2022-10-29T00:43:45;4.20;;;3.10;;
11443;SDS011;5778;47.856;12.154;2022-10-29T00:46:15;3.73;;;3.30;;
11443;SDS011;5778;47.856;12.154;2022-10-29T00:48:48;5.10;;;3.87;;
11443;SDS011;5778;47.856;12.154;2022-10-29T00:51:17;4.27;;;3.60;;
11443;SDS011;5778;47.856;12.154;2022-10-29T00:53:46;4.07;;;3.67;;
11443;SDS011;5778;47.856;12.154;2022-10-29T00:56:17;4.60;;;3.63;;
11443;SDS011;5778;47.856;12.154;2022-10-29T00:58:44;4.03;;;3.30;;
11443;SDS011;5778;47.856;12.154;2022-10-29T01:01:12;3.50;;;3.20;;
11443;SDS011;5778;47.856;12.154;2022-10-29T01:03:40;4.80;;;3.70;;
11443;SDS011;5778;47.856;12.154;2022-10-29T01:06:08;3.90;;;3.50;;
11443;SDS011;5778;47.856;12.154;2022-10-29T01:08:35;4.00;;;3.50;;
11443;SDS011;5778;47.856;12.154;2022-10-29T01:11:03;3.70;;;3.03;;
11443;SDS011;5778;47.856;12.154;2022-10-29T01:13:46;5.00;;;3.27;;
11443;SDS011;5778;47.856;12.154;2022-10-29T01:16:26;5.40;;;3.10;;
11443;SDS011;5778;47.856;12.154;2022-10-29T01:19:03;4.00;;;2.90;;
11443;SDS011;5778;47.856;12.154;2022-10-29T01:21:42;3.53;;;2.90;;
11443;SDS011;5778;47.856;12.154;2022-10-29T01:30:16;3.47;;;3.07;;
11443;SDS011;5778;47.856;12.154;2022-10-29T01:32:50;4.20;;;3.37;;
11443;SDS011;5778;47.856;12.154;2022-10-29T01:35:24;4.70;;;3.03;;
11443;SDS011;5778;47.856;12.154;2022-10-29T01:38:03;4.87;;;3.37;;
11443;SDS011;5778;47.856;12.154;2022-10-29T01:40:38;4.43;;;3.03;;
11443;SDS011;5778;47.856;12.154;2022-10-29T01:43:16;8.23;;;2.90;;
11443;SDS011;5778;47.856;12.154;2022-10-29T01:45:50;5.57;;;3.00;;
11443;SDS011;5778;47.856;12.154;2022-10-29T01:48:25;4.90;;;3.23;;
11443;SDS011;5778;47.856;12.154;2022-10-29T01:50:57;4.03;;;3.07;;
11443;SDS011;5778;47.856;12.154;2022-10-29T01:53:28;3.67;;;2.70;;
11443;SDS011;5778;47.856;12.154;2022-10-29T01:55:57;4.23;;;2.87;;
11443;SDS011;5778;47.856;12.154;2022-10-29T01:58:24;3.80;;;3.00;;
11443;SDS011;5778;47.856;12.154;2022-10-29T02:00:54;4.07;;;2.90;;
11443;SDS011;5778;47.856;12.154;2022-10-29T02:03:32;4.23;;;3.33;;
11443;SDS011;5778;47.856;12.154;2022-10-29T02:06:10;4.10;;;2.87;;
11443;SDS011;5778;47.856;12.154;2022-10-29T02:08:48;3.00;;;2.73;;
11443;SDS011;5778;47.856;12.154;2022-10-29T02:11:22;5.17;;;3.40;;
11443;SDS011;5778;47.856;12.154;2022-10-29T02:13:56;5.00;;;2.80;;
11443;SDS011;5778;47.856;12.154;2022-10-29T02:16:27;5.97;;;3.13;;
11443;SDS011;5778;47.856;12.154;2022-10-29T02:18:57;3.43;;;2.77;;
11443;SDS011;5778;47.856;12.154;2022-10-29T02:21:26;4.33;;;2.70;;
11443;SDS011;5778;47.856;12.154;2022-10-29T02:23:53;4.77;;;3.23;;
11443;SDS011;5778;47.856;12.154;2022-10-29T02:26:20;4.43;;;2.93;;
11443;SDS011;5778;47.856;12.154;2022-10-29T02:28:47;4.37;;;3.23;;
11443;SDS011;5778;47.856;12.154;2022-10-29T02:31:14;4.53;;;3.13;;
11443;SDS011;5778;47.856;12.154;2022-10-29T02:33:41;5.47;;;3.33;;
11443;SDS011;5778;47.856;12.154;2022-10-29T02:36:10;3.93;;;3.13;;
11443;SDS011;5778;47.856;12.154;2022-10-29T02:38:37;5.80;;;2.70;;
11443;SDS011;5778;47.856;12.154;2022-10-29T02:41:03;2.90;;;2.70;;
11443;SDS011;5778;47.856;12.154;2022-10-29T02:43:31;4.73;;;2.83;;
11443;SDS011;5778;47.856;12.154;2022-10-29T02:46:10;4.27;;;3.03;;
11443;SDS011;5778;47.856;12.154;2022-10-29T02:48:38;5.33;;;3.00;;
11443;SDS011;5778;47.856;12.154;2022-10-29T02:51:05;3.17;;;2.87;;
11443;SDS011;5778;47.856;12.154;2022-10-29T02:53:34;5.63;;;3.63;;
11443;SDS011;5778;47.856;12.154;2022-10-29T02:56:01;5.57;;;3.00;;
11443;SDS011;5778;47.856;12.154;2022-10-29T02:58:29;3.43;;;3.10;;
11443;SDS011;5778;47.856;12.154;2022-10-29T03:00:57;3.97;;;3.57;;
11443;SDS011;5778;47.856;12.154;2022-10-29T03:03:24;4.30;;;2.87;;
11443;SDS011;5778;47.856;12.154;2022-10-29T03:05:51;3.13;;;2.93;;
11443;SDS011;5778;47.856;12.154;2022-10-29T03:08:18;3.97;;;2.77;;
11443;SDS011;5778;47.856;12.154;2022-10-29T03:10:47;4.10;;;3.27;;
11443;SDS011;5778;47.856;12.154;2022-10-29T03:13:14;4.37;;;3.20;;
11443;SDS011;5778;47.856;12.154;2022-10-29T03:15:42;4.23;;;3.47;;
11443;SDS011;5778;47.856;12.154;2022-10-29T03:18:10;6.47;;;3.30;;
11443;SDS011;5778;47.856;12.154;2022-10-29T03:20:37;3.80;;;3.40;;
11443;SDS011;5778;47.856;12.154;2022-10-29T03:23:04;3.43;;;3.13;;
11443;SDS011;5778;47.856;12.154;2022-10-29T03:25:31;7.43;;;3.50;;
11443;SDS011;5778;47.856;12.154;2022-10-29T03:28:00;3.50;;;2.80;;
11443;SDS011;5778;47.856;12.154;2022-10-29T03:30:27;4.73;;;3.50;;
11443;SDS011;5778;47.856;12.154;2022-10-29T03:32:54;3.63;;;3.30;;
11443;SDS011;5778;47.856;12.154;2022-10-29T03:35:21;3.60;;;2.77;;
11443;SDS011;5778;47.856;12.154;2022-10-29T03:37:49;5.40;;;3.90;;
11443;SDS011;5778;47.856;12.154;2022-10-29T03:40:17;3.97;;;3.50;;
11443;SDS011;5778;47.856;12.154;2022-10-29T03:42:44;4.70;;;3.60;;
11443;SDS011;5778;47.856;12.154;2022-10-29T03:45:13;5.43;;;3.40;;
11443;SDS011;5778;47.856;12.154;2022-10-29T03:47:41;4.67;;;3.80;;
11443;SDS011;5778;47.856;12.154;2022-10-29T03:50:08;4.40;;;3.60;;
11443;SDS011;5778;47.856;12.154;2022-10-29T03:52:35;7.23;;;3.20;;
11443;SDS011;5778;47.856;12.154;2022-10-29T03:55:03;5.07;;;3.00;;
11443;SDS011;5778;47.856;12.154;2022-10-29T03:57:31;3.37;;;3.07;;
11443;SDS011;5778;47.856;12.154;2022-10-29T03:59:58;3.97;;;2.70;;
11443;SDS011;5778;47.856;12.154;2022-10-29T04:02:27;3.67;;;3.03;;
11443;SDS011;5778;47.856;12.154;2022-10-29T04:04:55;4.07;;;3.70;;
11443;SDS011;5778;47.856;12.154;2022-10-29T04:07:22;6.03;;;3.80;;
11443;SDS011;5778;47.856;12.154;2022-10-29T04:09:49;7.17;;;3.70;;
11443;SDS011;5778;47.856;12.154;2022-10-29T04:12:17;4.20;;;3.33;;
11443;SDS011;5778;47.856;12.154;2022-10-29T04:14:44;5.87;;;3.37;;
11443;SDS011;5778;47.856;12.154;2022-10-29T04:17:12;6.13;;;3.60;;
11443;SDS011;5778;47.856;12.154;2022-10-29T04:19:41;4.27;;;3.23;;
11443;SDS011;5778;47.856;12.154;2022-10-29T04:22:09;5.30;;;3.20;;
11443;SDS011;5778;47.856;12.154;2022-10-29T04:24:36;5.90;;;3.40;;
11443;SDS011;5778;47.856;12.154;2022-10-29T04:27:04;4.53;;;3.10;;
11443;SDS011;5778;47.856;12.154;2022-10-29T04:29:31;4.20;;;3.30;;
11443;SDS011;5778;47.856;12.154;2022-10-29T04:31:58;3.73;;;3.10;;
11443;SDS011;5778;47.856;12.154;2022-10-29T04:34:26;3.97;;;3.03;;
11443;SDS011;5778;47.856;12.154;2022-10-29T04:36:54;4.50;;;3.20;;
11443;SDS011;5778;47.856;12.154;2022-10-29T04:39:21;4.53;;;3.27;;
11443;SDS011;5778;47.856;12.154;2022-10-29T04:41:48;10.03;;;3.53;;
11443;SDS011;5778;47.856;12.154;2022-10-29T04:44:30;7.60;;;4.20;;
11443;SDS011;5778;47.856;12.154;2022-10-29T04:46:57;3.60;;;3.30;;
11443;SDS011;5778;47.856;12.154;2022-10-29T04:49:24;5.10;;;3.50;;
11443;SDS011;5778;47.856;12.154;2022-10-29T04:51:51;5.87;;;3.53;;
11443;SDS011;5778;47.856;12.154;2022-10-29T04:54:25;4.17;;;3.70;;
11443;SDS011;5778;47.856;12.154;2022-10-29T04:56:52;4.13;;;3.53;;
11443;SDS011;5778;47.856;12.154;2022-10-29T04:59:20;5.27;;;3.90;;
11443;SDS011;5778;47.856;12.154;2022-10-29T05:01:48;7.63;;;4.47;;
11443;SDS011;5778;47.856;12.154;2022-10-29T05:04:15;4.60;;;4.10;;
11443;SDS011;5778;47.856;12.154;2022-10-29T05:06:42;8.63;;;3.97;;
11443;SDS011;5778;47.856;12.154;2022-10-29T05:09:09;4.77;;;4.30;;
11443;SDS011;5778;47.856;12.154;2022-10-29T05:11:38;7.47;;;3.70;;
11443;SDS011;5778;47.856;12.154;2022-10-29T05:14:05;6.03;;;3.90;;
11443;SDS011;5778;47.856;12.154;2022-10-29T05:16:32;7.40;;;3.93;;
11443;SDS011;5778;47.856;12.154;2022-10-29T05:19:00;5.23;;;3.80;;
11443;SDS011;5778;47.856;12.154;2022-10-29T05:21:27;4.53;;;3.93;;
11443;SDS011;5778;47.856;12.154;2022-10-29T05:23:54;5.13;;;3.63;;
11443;SDS011;5778;47.856;12.154;2022-10-29T05:26:23;7.63;;;4.10;;
11443;SDS011;5778;47.856;12.154;2022-10-29T05:28:52;7.03;;;4.50;;
11443;SDS011;5778;47.856;12.154;2022-10-29T05:31:19;4.63;;;4.10;;
11443;SDS011;5778;47.856;12.154;2022-10-29T05:33:46;5.57;;;4.07;;
11443;SDS011;5778;47.856;12.154;2022-10-29T05:36:13;6.93;;;4.63;;
11443;SDS011;5778;47.856;12.154;2022-10-29T05:38:40;8.33;;;4.70;;
11443;SDS011;5778;47.856;12.154;2022-10-29T05:41:07;6.87;;;4.30;;
11443;SDS011;5778;47.856;12.154;2022-10-29T05:43:35;5.03;;;4.50;;
11443;SDS011;5778;47.856;12.154;2022-10-29T05:46:04;6.37;;;4.57;;
11443;SDS011;5778;47.856;12.154;2022-10-29T05:48:30;6.93;;;5.10;;
11443;SDS011;5778;47.856;12.154;2022-10-29T05:50:59;8.50;;;5.13;;
11443;SDS011;5778;47.856;12.154;2022-10-29T05:53:26;6.20;;;4.80;;
11443;SDS011;5778;47.856;12.154;2022-10-29T05:55:53;6.10;;;4.70;;
11443;SDS011;5778;47.856;12.154;2022-10-29T05:58:20;5.30;;;4.27;;
11443;SDS011;5778;47.856;12.154;2022-10-29T06:00:47;5.53;;;4.47;;
11443;SDS011;5778;47.856;12.154;2022-10-29T06:03:17;7.80;;;4.07;;
11443;SDS011;5778;47.856;12.154;2022-10-29T06:05:45;7.07;;;4.33;;
11443;SDS011;5778;47.856;12.154;2022-10-29T06:08:14;7.47;;;4.10;;
11443;SDS011;5778;47.856;12.154;2022-10-29T06:10:41;4.47;;;3.97;;
11443;SDS011;5778;47.856;12.154;2022-10-29T06:13:08;5.60;;;4.53;;
11443;SDS011;5778;47.856;12.154;2022-10-29T06:15:37;5.67;;;4.70;;
11443;SDS011;5778;47.856;12.154;2022-10-29T06:18:05;5.60;;;4.43;;
11443;SDS011;5778;47.856;12.154;2022-10-29T06:20:35;6.43;;;4.13;;
11443;SDS011;5778;47.856;12.154;2022-10-29T06:23:03;6.67;;;4.70;;
11443;SDS011;5778;47.856;12.154;2022-10-29T06:25:31;6.43;;;4.90;;
11443;SDS011;5778;47.856;12.154;2022-10-29T06:27:59;6.10;;;4.80;;
11443;SDS011;5778;47.856;12.154;2022-10-29T06:30:28;5.37;;;4.40;;
11443;SDS011;5778;47.856;12.154;2022-10-29T06:32:55;5.93;;;4.67;;
11443;SDS011;5778;47.856;12.154;2022-10-29T06:35:23;5.53;;;4.90;;
11443;SDS011;5778;47.856;12.154;2022-10-29T06:37:52;6.27;;;4.57;;
11443;SDS011;5778;47.856;12.154;2022-10-29T06:40:19;6.43;;;5.03;;
11443;SDS011;5778;47.856;12.154;2022-10-29T06:42:47;5.93;;;5.00;;
11443;SDS011;5778;47.856;12.154;2022-10-29T06:45:14;6.23;;;4.90;;
11443;SDS011;5778;47.856;12.154;2022-10-29T06:47:41;7.00;;;4.60;;
11443;SDS011;5778;47.856;12.154;2022-10-29T06:50:10;8.37;;;4.93;;
11443;SDS011;5778;47.856;12.154;2022-10-29T06:52:38;7.73;;;4.70;;
11443;SDS011;5778;47.856;12.154;2022-10-29T06:55:08;7.87;;;5.00;;
11443;SDS011;5778;47.856;12.154;2022-10-29T06:57:35;8.57;;;4.47;;
11443;SDS011;5778;47.856;12.154;2022-10-29T07:00:03;5.63;;;4.10;;
11443;SDS011;5778;47.856;12.154;2022-10-29T07:02:30;4.70;;;4.20;;
11443;SDS011;5778;47.856;12.154;2022-10-29T07:04:57;8.10;;;4.80;;
11443;SDS011;5778;47.856;12.154;2022-10-29T07:07:26;7.90;;;4.93;;
11443;SDS011;5778;47.856;12.154;2022-10-29T07:09:53;7.83;;;5.07;;
11443;SDS011;5778;47.856;12.154;2022-10-29T07:12:29;11.20;;;7.10;;
11443;SDS011;5778;47.856;12.154;2022-10-29T07:14:56;12.20;;;7.03;;
11443;SDS011;5778;47.856;12.154;2022-10-29T07:17:23;6.30;;;5.40;;
11443;SDS011;5778;47.856;12.154;2022-10-29T07:19:50;12.93;;;4.77;;
11443;SDS011;5778;47.856;12.154;2022-10-29T07:22:17;6.80;;;3.97;;
11443;SDS011;5778;47.856;12.154;2022-10-29T07:24:44;8.87;;;4.40;;
11443;SDS011;5778;47.856;12.154;2022-10-29T07:27:11;5.40;;;4.50;;
11443;SDS011;5778;47.856;12.154;2022-10-29T07:29:39;7.40;;;4.10;;
11443;SDS011;5778;47.856;12.154;2022-10-29T07:32:06;6.33;;;4.33;;
11443;SDS011;5778;47.856;12.154;2022-10-29T07:34:33;8.20;;;3.37;;
11443;SDS011;5778;47.856;12.154;2022-10-29T07:37:01;4.70;;;3.37;;
11443;SDS011;5778;47.856;12.154;2022-10-29T07:39:28;9.03;;;3.77;;
11443;SDS011;5778;47.856;12.154;2022-10-29T07:41:55;7.00;;;4.23;;
11443;SDS011;5778;47.856;12.154;2022-10-29T07:44:22;7.17;;;4.10;;
11443;SDS011;5778;47.856;12.154;2022-10-29T07:46:51;7.13;;;4.90;;
11443;SDS011;5778;47.856;12.154;2022-10-29T07:49:18;16.50;;;11.50;;
11443;SDS011;5778;47.856;12.154;2022-10-29T07:51:46;23.17;;;12.77;;
11443;SDS011;5778;47.856;12.154;2022-10-29T07:54:14;20.60;;;12.17;;
11443;SDS011;5778;47.856;12.154;2022-10-29T07:56:41;17.03;;;10.67;;
11443;SDS011;5778;47.856;12.154;2022-10-29T07:59:08;15.97;;;9.33;;
11443;SDS011;5778;47.856;12.154;2022-10-29T08:01:38;13.13;;;8.43;;
11443;SDS011;5778;47.856;12.154;2022-10-29T08:04:07;11.40;;;6.80;;
11443;SDS011;5778;47.856;12.154;2022-10-29T08:06:33;11.17;;;5.80;;
11443;SDS011;5778;47.856;12.154;2022-10-29T08:09:01;6.07;;;4.10;;
11443;SDS011;5778;47.856;12.154;2022-10-29T08:11:29;8.40;;;4.17;;
11443;SDS011;5778;47.856;12.154;2022-10-29T08:13:57;7.13;;;4.60;;
11443;SDS011;5778;47.856;12.154;2022-10-29T08:16:24;7.53;;;4.53;;
11443;SDS011;5778;47.856;12.154;2022-10-29T08:18:51;9.43;;;4.60;;
11443;SDS011;5778;47.856;12.154;2022-10-29T08:21:20;6.77;;;4.00;;
11443;SDS011;5778;47.856;12.154;2022-10-29T08:23:47;6.03;;;3.37;;
11443;SDS011;5778;47.856;12.154;2022-10-29T08:26:18;7.47;;;3.60;;
11443;SDS011;5778;47.856;12.154;2022-10-29T08:28:45;3.87;;;3.10;;
11443;SDS011;5778;47.856;12.154;2022-10-29T08:31:12;6.53;;;4.13;;
11443;SDS011;5778;47.856;12.154;2022-10-29T08:33:40;6.90;;;3.33;;
11443;SDS011;5778;47.856;12.154;2022-10-29T08:36:07;5.50;;;3.60;;
11443;SDS011;5778;47.856;12.154;2022-10-29T08:38:36;5.77;;;3.90;;
11443;SDS011;5778;47.856;12.154;2022-10-29T08:41:16;5.77;;;3.40;;
11443;SDS011;5778;47.856;12.154;2022-10-29T08:44:05;6.80;;;3.17;;
11443;SDS011;5778;47.856;12.154;2022-10-29T08:46:52;4.47;;;3.70;;
11443;SDS011;5778;47.856;12.154;2022-10-29T08:49:24;4.60;;;3.27;;
11443;SDS011;5778;47.856;12.154;2022-10-29T08:51:58;4.57;;;3.70;;
11443;SDS011;5778;47.856;12.154;2022-10-29T08:54:32;5.10;;;2.73;;
11443;SDS011;5778;47.856;12.154;2022-10-29T08:57:04;6.27;;;3.27;;
11443;SDS011;5778;47.856;12.154;2022-10-29T08:59:39;5.67;;;3.20;;
11443;SDS011;5778;47.856;12.154;2022-10-29T09:02:13;8.03;;;3.53;;
11443;SDS011;5778;47.856;12.154;2022-10-29T09:04:42;5.37;;;3.57;;
11443;SDS011;5778;47.856;12.154;2022-10-29T09:07:14;6.60;;;3.30;;
11443;SDS011;5778;47.856;12.154;2022-10-29T09:09:53;6.33;;;3.33;;
11443;SDS011;5778;47.856;12.154;2022-10-29T09:15:33;7.33;;;2.80;;
11443;SDS011;5778;47.856;12.154;2022-10-29T09:18:15;6.53;;;2.90;;
11443;SDS011;5778;47.856;12.154;2022-10-29T09:20:54;5.07;;;2.53;;
11443;SDS011;5778;47.856;12.154;2022-10-29T09:23:34;4.40;;;2.67;;
11443;SDS011;5778;47.856;12.154;2022-10-29T09:26:19;6.57;;;2.50;;
11443;SDS011;5778;47.856;12.154;2022-10-29T09:28:54;8.60;;;2.80;;
11443;SDS011;5778;47.856;12.154;2022-10-29T09:31:33;6.30;;;2.60;;
11443;SDS011;5778;47.856;12.154;2022-10-29T09:34:09;7.30;;;2.57;;
11443;SDS011;5778;47.856;12.154;2022-10-29T09:36:42;5.73;;;2.50;;
11443;SDS011;5778;47.856;12.154;2022-10-29T09:39:11;4.03;;;2.27;;
11443;SDS011;5778;47.856;12.154;2022-10-29T09:41:43;5.50;;;2.43;;
11443;SDS011;5778;47.856;12.154;2022-10-29T09:44:15;4.13;;;2.50;;
11443;SDS011;5778;47.856;12.154;2022-10-29T09:46:48;5.47;;;2.17;;
11443;SDS011;5778;47.856;12.154;2022-10-29T09:49:30;7.17;;;2.70;;
11443;SDS011;5778;47.856;12.154;2022-10-29T09:52:09;4.53;;;2.17;;
11443;SDS011;5778;47.856;12.154;2022-10-29T09:54:40;9.03;;;2.37;;
11443;SDS011;5778;47.856;12.154;2022-10-29T09:57:11;7.10;;;2.43;;
11443;SDS011;5778;47.856;12.154;2022-10-29T09:59:45;5.40;;;2.40;;
11443;SDS011;5778;47.856;12.154;2022-10-29T10:02:21;4.60;;;2.60;;
11443;SDS011;5778;47.856;12.154;2022-10-29T10:04:54;7.47;;;2.60;;
11443;SDS011;5778;47.856;12.154;2022-10-29T10:07:27;18.30;;;10.70;;
11443;SDS011;5778;47.856;12.154;2022-10-29T10:09:55;31.77;;;20.73;;
11443;SDS011;5778;47.856;12.154;2022-10-29T10:12:26;16.23;;;7.83;;
11443;SDS011;5778;47.856;12.154;2022-10-29T10:15:01;7.77;;;4.60;;
11443;SDS011;5778;47.856;12.154;2022-10-29T10:20:25;7.87;;;2.93;;
11443;SDS011;5778;47.856;12.154;2022-10-29T10:22:54;4.93;;;2.77;;
11443;SDS011;5778;47.856;12.154;2022-10-29T10:25:30;7.30;;;2.70;;
11443;SDS011;5778;47.856;12.154;2022-10-29T10:28:02;5.43;;;2.23;;
11443;SDS011;5778;47.856;12.154;2022-10-29T10:30:30;5.03;;;2.40;;
11443;SDS011;5778;47.856;12.154;2022-10-29T10:33:03;7.90;;;2.60;;
11443;SDS011;5778;47.856;12.154;2022-10-29T10:35:37;5.37;;;2.00;;
11443;SDS011;5778;47.856;12.154;2022-10-29T10:38:07;6.87;;;3.00;;
11443;SDS011;5778;47.856;12.154;2022-10-29T10:40:36;7.77;;;3.10;;
11443;SDS011;5778;47.856;12.154;2022-10-29T10:43:04;6.70;;;2.97;;
11443;SDS011;5778;47.856;12.154;2022-10-29T10:45:33;14.23;;;4.60;;
11443;SDS011;5778;47.856;12.154;2022-10-29T10:48:06;6.97;;;3.50;;
11443;SDS011;5778;47.856;12.154;2022-10-29T10:50:35;5.40;;;2.80;;
11443;SDS011;5778;47.856;12.154;2022-10-29T10:53:04;6.03;;;3.07;;
11443;SDS011;5778;47.856;12.154;2022-10-29T10:55:45;8.83;;;3.50;;
11443;SDS011;5778;47.856;12.154;2022-10-29T10:58:16;8.27;;;3.27;;
11443;SDS011;5778;47.856;12.154;2022-10-29T11:00:50;6.83;;;3.60;;
11443;SDS011;5778;47.856;12.154;2022-10-29T11:03:23;7.13;;;2.53;;
11443;SDS011;5778;47.856;12.154;2022-10-29T11:05:59;7.87;;;2.83;;
11443;SDS011;5778;47.856;12.154;2022-10-29T11:08:32;6.40;;;2.70;;
11443;SDS011;5778;47.856;12.154;2022-10-29T11:11:04;6.87;;;2.70;;
11443;SDS011;5778;47.856;12.154;2022-10-29T11:13:37;11.47;;;2.90;;
11443;SDS011;5778;47.856;12.154;2022-10-29T11:16:06;7.43;;;2.70;;
11443;SDS011;5778;47.856;12.154;2022-10-29T11:18:42;7.10;;;2.10;;
11443;SDS011;5778;47.856;12.154;2022-10-29T11:21:15;8.00;;;3.07;;
11443;SDS011;5778;47.856;12.154;2022-10-29T11:23:47;5.97;;;2.20;;
11443;SDS011;5778;47.856;12.154;2022-10-29T11:26:24;7.30;;;2.47;;
11443;SDS011;5778;47.856;12.154;2022-10-29T11:28:57;5.70;;;2.47;;
11443;SDS011;5778;47.856;12.154;2022-10-29T11:31:31;7.53;;;2.43;;
11443;SDS011;5778;47.856;12.154;2022-10-29T11:34:07;6.00;;;2.53;;
11443;SDS011;5778;47.856;12.154;2022-10-29T11:36:44;4.40;;;2.23;;
11443;SDS011;5778;47.856;12.154;2022-10-29T11:39:18;8.20;;;2.43;;
11443;SDS011;5778;47.856;12.154;2022-10-29T11:41:54;4.07;;;1.97;;
11443;SDS011;5778;47.856;12.154;2022-10-29T11:44:25;4.77;;;2.23;;
11443;SDS011;5778;47.856;12.154;2022-10-29T11:47:02;5.20;;;2.33;;
11443;SDS011;5778;47.856;12.154;2022-10-29T11:49:47;5.77;;;2.37;;
11443;SDS011;5778;47.856;12.154;2022-10-29T11:52:25;4.97;;;2.63;;
11443;SDS011;5778;47.856;12.154;2022-10-29T11:54:58;7.57;;;2.30;;
11443;SDS011;5778;47.856;12.154;2022-10-29T11:57:35;7.33;;;2.57;;
11443;SDS011;5778;47.856;12.154;2022-10-29T12:00:11;5.67;;;2.33;;
11443;SDS011;5778;47.856;12.154;2022-10-29T12:02:55;6.63;;;2.50;;
11443;SDS011;5778;47.856;12.154;2022-10-29T12:05:41;6.03;;;2.47;;
11443;SDS011;5778;47.856;12.154;2022-10-29T12:08:18;4.87;;;2.63;;
11443;SDS011;5778;47.856;12.154;2022-10-29T12:10:53;8.93;;;2.70;;
11443;SDS011;5778;47.856;12.154;2022-10-29T12:13:33;5.77;;;2.80;;
11443;SDS011;5778;47.856;12.154;2022-10-29T12:16:13;6.57;;;2.53;;
11443;SDS011;5778;47.856;12.154;2022-10-29T12:18:51;8.97;;;2.50;;
11443;SDS011;5778;47.856;12.154;2022-10-29T12:21:28;6.60;;;2.63;;
11443;SDS011;5778;47.856;12.154;2022-10-29T12:24:05;7.43;;;2.73;;
11443;SDS011;5778;47.856;12.154;2022-10-29T12:26:43;10.17;;;6.07;;
11443;SDS011;5778;47.856;12.154;2022-10-29T12:29:17;6.97;;;4.33;;
11443;SDS011;5778;47.856;12.154;2022-10-29T12:31:54;8.33;;;2.50;;
11443;SDS011;5778;47.856;12.154;2022-10-29T12:34:27;9.17;;;2.37;;
11443;SDS011;5778;47.856;12.154;2022-10-29T12:37:05;7.80;;;2.50;;
11443;SDS011;5778;47.856;12.154;2022-10-29T12:39:37;5.33;;;2.67;;
11443;SDS011;5778;47.856;12.154;2022-10-29T12:42:11;8.90;;;2.53;;
11443;SDS011;5778;47.856;12.154;2022-10-29T12:44:44;8.30;;;2.80;;
11443;SDS011;5778;47.856;12.154;2022-10-29T12:47:27;10.27;;;2.77;;
11443;SDS011;5778;47.856;12.154;2022-10-29T12:50:02;5.43;;;2.27;;
11443;SDS011;5778;47.856;12.154;2022-10-29T12:52:37;7.80;;;2.50;;
11443;SDS011;5778;47.856;12.154;2022-10-29T12:55:09;7.63;;;2.40;;
11443;SDS011;5778;47.856;12.154;2022-10-29T12:57:38;5.73;;;2.53;;
11443;SDS011;5778;47.856;12.154;2022-10-29T13:06:41;5.63;;;2.50;;
11443;SDS011;5778;47.856;12.154;2022-10-29T13:09:14;11.47;;;2.43;;
11443;SDS011;5778;47.856;12.154;2022-10-29T13:11:43;6.63;;;2.37;;
11443;SDS011;5778;47.856;12.154;2022-10-29T13:14:13;5.93;;;2.37;;
11443;SDS011;5778;47.856;12.154;2022-10-29T13:16:46;6.30;;;2.70;;
11443;SDS011;5778;47.856;12.154;2022-10-29T13:19:19;6.40;;;2.73;;
11443;SDS011;5778;47.856;12.154;2022-10-29T13:21:57;6.67;;;2.70;;
11443;SDS011;5778;47.856;12.154;2022-10-29T13:24:26;10.40;;;2.13;;
11443;SDS011;5778;47.856;12.154;2022-10-29T13:26:55;6.93;;;2.70;;
11443;SDS011;5778;47.856;12.154;2022-10-29T13:29:39;6.17;;;2.27;;
11443;SDS011;5778;47.856;12.154;2022-10-29T13:32:08;8.27;;;2.30;;
11443;SDS011;5778;47.856;12.154;2022-10-29T13:34:57;6.13;;;2.73;;
11443;SDS011;5778;47.856;12.154;2022-10-29T13:43:37;7.37;;;2.90;;
11443;SDS011;5778;47.856;12.154;2022-10-29T13:48:59;6.67;;;2.70;;
11443;SDS011;5778;47.856;12.154;2022-10-29T13:51:33;7.30;;;2.80;;
11443;SDS011;5778;47.856;12.154;2022-10-29T13:54:07;5.37;;;2.40;;
11443;SDS011;5778;47.856;12.154;2022-10-29T13:56:43;7.03;;;2.43;;
11443;SDS011;5778;47.856;12.154;2022-10-29T13:59:17;7.23;;;2.53;;
11443;SDS011;5778;47.856;12.154;2022-10-29T14:01:53;7.87;;;2.57;;
11443;SDS011;5778;47.856;12.154;2022-10-29T14:04:28;6.50;;;2.33;;
11443;SDS011;5778;47.856;12.154;2022-10-29T14:07:02;6.00;;;2.67;;
11443;SDS011;5778;47.856;12.154;2022-10-29T14:09:40;9.07;;;2.30;;
11443;SDS011;5778;47.856;12.154;2022-10-29T14:12:13;7.37;;;2.70;;
11443;SDS011;5778;47.856;12.154;2022-10-29T14:14:47;10.80;;;2.53;;
11443;SDS011;5778;47.856;12.154;2022-10-29T14:17:21;8.00;;;2.63;;
11443;SDS011;5778;47.856;12.154;2022-10-29T14:19:48;6.60;;;2.50;;
11443;SDS011;5778;47.856;12.154;2022-10-29T14:22:22;8.43;;;2.70;;
11443;SDS011;5778;47.856;12.154;2022-10-29T14:24:57;6.73;;;2.50;;
11443;SDS011;5778;47.856;12.154;2022-10-29T14:27:26;6.63;;;2.43;;
11443;SDS011;5778;47.856;12.154;2022-10-29T14:30:07;5.67;;;2.80;;
11443;SDS011;5778;47.856;12.154;2022-10-29T14:32:37;5.73;;;2.43;;
11443;SDS011;5778;47.856;12.154;2022-10-29T14:35:06;10.53;;;2.57;;
11443;SDS011;5778;47.856;12.154;2022-10-29T14:37:35;10.20;;;2.60;;
11443;SDS011;5778;47.856;12.154;2022-10-29T14:40:12;9.57;;;2.70;;
11443;SDS011;5778;47.856;12.154;2022-10-29T14:42:43;6.60;;;2.30;;
11443;SDS011;5778;47.856;12.154;2022-10-29T14:45:16;7.77;;;2.30;;
11443;SDS011;5778;47.856;12.154;2022-10-29T14:47:49;7.20;;;2.43;;
11443;SDS011;5778;47.856;12.154;2022-10-29T14:50:19;8.70;;;2.97;;
11443;SDS011;5778;47.856;12.154;2022-10-29T14:52:50;9.20;;;3.00;;
11443;SDS011;5778;47.856;12.154;2022-10-29T14:55:20;8.03;;;2.87;;
11443;SDS011;5778;47.856;12.154;2022-10-29T14:57:51;5.33;;;2.50;;
11443;SDS011;5778;47.856;12.154;2022-10-29T15:00:24;6.83;;;2.73;;
11443;SDS011;5778;47.856;12.154;2022-10-29T15:02:54;5.93;;;2.90;;
11443;SDS011;5778;47.856;12.154;2022-10-29T15:05:23;4.47;;;2.30;;
11443;SDS011;5778;47.856;12.154;2022-10-29T15:08:03;11.20;;;3.17;;
11443;SDS011;5778;47.856;12.154;2022-10-29T15:10:31;9.93;;;3.10;;
11443;SDS011;5778;47.856;12.154;2022-10-29T15:13:13;6.50;;;2.80;;
11443;SDS011;5778;47.856;12.154;2022-10-29T15:15:49;5.83;;;2.60;;
11443;SDS011;5778;47.856;12.154;2022-10-29T15:18:18;6.33;;;2.40;;
11443;SDS011;5778;47.856;12.154;2022-10-29T15:20:49;8.43;;;3.00;;
11443;SDS011;5778;47.856;12.154;2022-10-29T15:23:21;6.37;;;2.67;;
11443;SDS011;5778;47.856;12.154;2022-10-29T15:25:51;5.73;;;2.83;;
11443;SDS011;5778;47.856;12.154;2022-10-29T15:28:23;6.93;;;3.50;;
11443;SDS011;5778;47.856;12.154;2022-10-29T15:30:52;6.37;;;3.40;;
11443;SDS011;5778;47.856;12.154;2022-10-29T15:33:20;11.37;;;3.27;;
11443;SDS011;5778;47.856;12.154;2022-10-29T15:35:52;9.40;;;3.37;;